Clearwater, KS

12:56 AM CST on December 29, 2014 (GMT -0600)
Southwest Wichita | Change Station
CLOSE
Current Station
Personal Weather Station
Location: Wichita, KS
Elevation: 1301 ft
Nearby Weather Stations

Elev 1301 ft 37.58 °N, 97.40 °W | Updated 1 minute ago

Clear
Clear
23.8 °F
Feels Like 24 °F
N
3.0
Wind Variable Wind from SSE
Gusts 3.0 mph

Today
High -- | Low -- °F
--% Chance of Precip.
Yesterday
High -- | Low -- °F
Precip. -- in
7:43 AM 5:20 PM
First Quarter, 56% visible
Pressure 30.19 in
Visibility 10.0 miles
Clouds Clear
Windchill 24 °F
Dew Point 17 °F
Humidity 74%
Rainfall 0.00 in
Snow Depth Not available.
UV 0.0 out of 12
Pollen .10 out of 12
Air Quality Not available.
Flu Activity Not available.
METAR KIAB 290558Z AUTO 14005KT 10SM CLR M03/M07 A3014 RMK AO2 SLP222 T10301074 10015 21032 400541097 52006

More Conditions Fewer Conditions

Pressure 30.19 in
Visibility 10.0 miles
Clouds Clear
Windchill 24 °F
Dew Point 17 °F
Humidity 74%
Rainfall 0.00 in
Snow Depth Not available.
UV 0.0 out of 12
Pollen .10 out of 12
Air Quality Not available.
Flu Activity Not available.
METAR KIAB 290558Z AUTO 14005KT 10SM CLR M03/M07 A3014 RMK AO2 SLP222 T10301074 10015 21032 400541097 52006

More Conditions Fewer Conditions

10-Day Weather Forecast

Almanac

Astronomy

Dec. 29, 2014 Rise Set
Actual Time
Civil Twilight
Nautical Twilight
Astronomical Twilight
Moon
Length of Visible Light
Length of Day
Tomorrow will be .
, % of the Moon is Illuminated

Today's Extremes

State Highs State Lows

Community

WunderPhotos

Upload Photos

1,781,546 photos uploaded!

WunderBlogs® & News

Nearby

Air Quality

  Air Quality AQ Index Pollutant
Not available.

Snow Depth

Station Depth Elevation

Earthquake Activity

City Distance Mag. Time & Date
Minimum magnitude displayed is 2.5.

Coastal Water Temperatures

Place Temperature

Nearby Weather Stations